createdAt,value
2023-04-19T00:01:38.118Z,100.00
2023-04-19T00:06:42.489Z,100.00
2023-04-19T00:11:49.587Z,100.00
2023-04-19T00:16:53.757Z,100.00
2023-04-19T00:21:57.722Z,100.00
2023-04-19T00:27:03.842Z,100.00
2023-04-19T00:32:08.877Z,100.00
2023-04-19T00:37:12.918Z,100.00
2023-04-19T00:42:18.450Z,100.00
2023-04-19T00:47:24.499Z,100.00
2023-04-19T00:52:29.135Z,100.00
2023-04-19T00:57:35.722Z,100.00
2023-04-19T01:02:39.895Z,100.00
2023-04-19T01:07:44.702Z,100.00
2023-04-19T01:12:52.961Z,100.00
2023-04-19T01:17:57.693Z,100.00
2023-04-19T01:23:03.209Z,100.00
2023-04-19T01:28:07.239Z,100.00
2023-04-19T01:33:11.198Z,100.00
2023-04-19T01:38:17.119Z,100.00
2023-04-19T01:43:21.144Z,100.00
2023-04-19T01:48:25.098Z,100.00
2023-04-19T01:53:32.000Z,100.00
2023-04-19T01:58:35.895Z,100.00
2023-04-19T02:03:40.426Z,100.00
2023-04-19T02:08:45.925Z,100.00
2023-04-19T02:13:50.108Z,100.00
2023-04-19T02:18:54.109Z,100.00
2023-04-19T02:23:59.756Z,100.00
2023-04-19T02:29:05.559Z,100.00
2023-04-19T02:34:10.707Z,100.00
2023-04-19T02:39:17.054Z,100.00
2023-04-19T02:44:21.004Z,100.00
2023-04-19T02:49:25.080Z,100.00
2023-04-19T02:54:30.707Z,100.00
2023-04-19T02:59:34.897Z,100.00
2023-04-19T03:04:41.625Z,100.00
2023-04-19T03:09:47.076Z,100.00
2023-04-19T03:14:51.294Z,100.00
2023-04-19T03:19:55.271Z,100.00
2023-04-19T03:25:01.524Z,100.00
2023-04-19T03:30:06.842Z,100.00
2023-04-19T03:35:11.694Z,100.00
2023-04-19T03:40:18.152Z,100.00
2023-04-19T03:45:22.797Z,100.00
2023-04-19T03:50:26.966Z,100.00
2023-04-19T03:55:34.564Z,100.00
2023-04-19T04:00:40.794Z,100.00
2023-04-19T04:05:44.910Z,100.00
2023-04-19T04:10:50.325Z,100.00
2023-04-19T04:15:54.584Z,100.00
2023-04-19T04:20:58.853Z,100.00
2023-04-19T04:26:06.852Z,100.00
2023-04-19T04:31:22.727Z,100.00
2023-04-19T04:36:30.046Z,100.00
2023-04-19T04:41:36.953Z,100.00
2023-04-19T04:46:42.846Z,100.00
2023-04-19T04:51:50.667Z,100.00
2023-04-19T04:56:56.249Z,100.00
2023-04-19T05:02:00.729Z,100.00
2023-04-19T05:07:05.275Z,100.00
2023-04-19T05:12:11.743Z,100.00
2023-04-19T05:17:15.861Z,100.00
2023-04-19T05:22:20.535Z,100.00
2023-04-19T05:27:25.993Z,100.00
2023-04-19T05:32:31.370Z,100.00
2023-04-19T05:37:38.301Z,100.00
2023-04-19T05:42:44.883Z,100.00
2023-04-19T05:47:49.139Z,100.00
2023-04-19T05:53:30.336Z,100.00
2023-04-19T05:58:36.701Z,100.00
2023-04-19T06:03:41.180Z,100.00
2023-04-19T06:08:45.546Z,100.00
2023-04-19T06:13:51.852Z,100.00
2023-04-19T06:18:57.030Z,100.00
2023-04-19T06:24:01.008Z,100.00
2023-04-19T06:29:06.401Z,100.00
2023-04-19T06:34:11.190Z,100.00
2023-04-19T06:39:16.483Z,100.00
2023-04-19T06:44:21.873Z,100.00
2023-04-19T06:49:25.891Z,100.00
2023-04-19T06:54:29.977Z,100.00
2023-04-19T06:59:38.837Z,100.00
2023-04-19T07:04:42.846Z,100.00
2023-04-19T07:09:46.925Z,100.00
2023-04-19T07:14:56.440Z,100.00
2023-04-19T07:20:00.383Z,100.00
2023-04-19T07:25:04.528Z,100.00
2023-04-19T07:30:11.277Z,100.00
2023-04-19T07:35:18.277Z,100.00
2023-04-19T07:40:22.442Z,100.00
2023-04-19T07:45:27.766Z,100.00
2023-04-19T07:50:31.725Z,100.00
2023-04-19T07:55:39.107Z,100.00
2023-04-19T08:00:48.201Z,94.03
2023-04-19T08:05:52.220Z,76.99
2023-04-19T08:10:56.382Z,79.65
2023-04-19T08:21:08.752Z,61.81
2023-04-19T08:26:12.639Z,74.92
2023-04-19T08:31:19.866Z,60.93
2023-04-19T08:36:37.208Z,66.28
2023-04-19T08:41:48.181Z,61.58
2023-04-19T08:46:58.502Z,75.23
2023-04-19T08:52:03.289Z,76.15
2023-04-19T08:57:10.163Z,87.83
2023-04-19T09:02:15.973Z,92.94
2023-04-19T09:07:26.960Z,100.00
2023-04-19T09:12:31.176Z,85.26
2023-04-19T09:17:42.633Z,84.70
2023-04-19T09:23:04.790Z,78.87
2023-04-19T09:28:13.049Z,82.95
2023-04-19T09:33:33.166Z,86.42
2023-04-19T09:38:49.174Z,73.12
2023-04-19T09:44:13.968Z,84.38
2023-04-19T09:49:27.889Z,82.57
2023-04-19T09:54:42.753Z,100.00
2023-04-19T09:59:46.670Z,100.00
2023-04-19T10:10:15.846Z,81.29
2023-04-19T10:15:22.499Z,68.62
2023-04-19T10:20:33.970Z,69.21
2023-04-19T10:25:39.608Z,66.24
2023-04-19T10:30:55.001Z,59.39
2023-04-19T10:36:01.205Z,57.05
2023-04-19T10:41:05.626Z,57.66
2023-04-19T10:46:11.481Z,53.06
2023-04-19T10:51:21.270Z,51.25
2023-04-19T10:56:58.567Z,55.51
2023-04-19T11:02:04.223Z,52.13
2023-04-19T11:07:09.634Z,53.37
2023-04-19T11:12:18.286Z,48.19
2023-04-19T11:17:26.034Z,51.82
2023-04-19T11:22:37.431Z,53.83
2023-04-19T11:27:43.142Z,51.22
2023-04-19T11:32:48.724Z,53.21
2023-04-19T11:37:54.774Z,45.83
2023-04-19T11:43:00.622Z,47.14
2023-04-19T11:48:07.449Z,50.37
2023-04-19T11:53:15.166Z,55.64
2023-04-19T11:58:28.848Z,46.70
2023-04-19T12:03:33.029Z,48.71
2023-04-19T12:08:39.659Z,47.77
2023-04-19T12:13:44.553Z,50.64
2023-04-19T12:18:50.268Z,51.46
2023-04-19T12:23:57.654Z,55.29
2023-04-19T12:29:01.728Z,57.33
2023-04-19T12:34:05.673Z,56.84
2023-04-19T12:39:11.042Z,54.30
2023-04-19T12:44:15.180Z,52.33
2023-04-19T12:49:20.945Z,55.63
2023-04-19T12:54:26.349Z,50.88
2023-04-19T12:59:30.883Z,53.08
2023-04-19T13:04:38.317Z,45.96
2023-04-19T13:09:43.712Z,46.98
2023-04-19T13:14:51.489Z,50.29
2023-04-19T13:19:55.373Z,53.90
2023-04-19T13:25:00.664Z,51.88
2023-04-19T13:30:04.899Z,52.41
2023-04-19T13:35:10.540Z,59.66
2023-04-19T13:40:19.478Z,56.53
2023-04-19T13:45:24.131Z,56.56
2023-04-19T13:50:28.074Z,56.73
2023-04-19T13:55:33.726Z,57.23
2023-04-19T14:00:37.658Z,60.82
2023-04-19T14:05:41.866Z,60.42
2023-04-19T14:10:47.227Z,60.18
2023-04-19T14:15:51.867Z,55.78
2023-04-19T14:20:56.561Z,56.86
2023-04-19T14:26:02.014Z,63.41
2023-04-19T14:31:06.353Z,69.06
2023-04-19T14:36:10.516Z,80.45
2023-04-19T14:41:15.969Z,100.00
2023-04-19T14:46:20.034Z,100.00
2023-04-19T14:51:23.949Z,100.00
2023-04-19T14:56:29.268Z,100.00
2023-04-19T15:01:33.164Z,100.00
2023-04-19T15:06:37.406Z,100.00
2023-04-19T15:11:42.777Z,100.00
2023-04-19T15:16:46.715Z,100.00
2023-04-19T15:21:50.792Z,100.00
2023-04-19T15:26:56.688Z,100.00
2023-04-19T15:32:00.979Z,100.00
2023-04-19T15:37:06.562Z,100.00
2023-04-19T15:42:12.071Z,100.00
2023-04-19T15:47:16.040Z,100.00
2023-04-19T15:52:20.099Z,100.00
2023-04-19T15:57:25.690Z,100.00
2023-04-19T16:02:29.814Z,100.00
2023-04-19T16:07:34.025Z,100.00
2023-04-19T16:12:39.325Z,100.00
2023-04-19T16:17:43.240Z,100.00
2023-04-19T16:22:47.341Z,100.00
2023-04-19T16:27:52.704Z,100.00
2023-04-19T16:32:57.699Z,100.00
2023-04-19T16:38:04.366Z,100.00
2023-04-19T16:43:09.659Z,100.00
2023-04-19T16:48:13.740Z,100.00
2023-04-19T16:53:18.660Z,100.00
2023-04-19T16:58:23.976Z,100.00
2023-04-19T17:03:29.644Z,100.00
2023-04-19T17:08:33.921Z,100.00
2023-04-19T17:13:39.936Z,100.00
2023-04-19T17:18:43.930Z,100.00
2023-04-19T17:23:48.012Z,100.00
2023-04-19T17:28:53.408Z,100.00
2023-04-19T17:33:57.736Z,100.00
2023-04-19T17:39:01.794Z,100.00
2023-04-19T17:44:07.289Z,100.00
2023-04-19T17:49:12.888Z,100.00
2023-04-19T17:54:17.395Z,100.00
2023-04-19T17:59:23.726Z,100.00
2023-04-19T18:04:27.820Z,100.00
2023-04-19T18:09:32.120Z,100.00
2023-04-19T18:14:37.582Z,100.00
2023-04-19T18:19:41.516Z,100.00
2023-04-19T18:24:47.301Z,100.00
2023-04-19T18:29:53.267Z,100.00
2023-04-19T18:35:00.751Z,100.00
2023-04-19T18:40:07.021Z,100.00
2023-04-19T18:45:13.129Z,100.00
2023-04-19T18:50:19.101Z,100.00
2023-04-19T18:55:26.777Z,100.00
2023-04-19T19:00:32.093Z,100.00
2023-04-19T19:05:36.148Z,100.00
2023-04-19T19:11:07.178Z,100.00
2023-04-19T19:16:06.410Z,100.00
2023-04-19T19:21:10.332Z,100.00
2023-04-19T19:26:14.405Z,100.00
2023-04-19T19:31:20.008Z,100.00
2023-04-19T19:36:24.239Z,100.00
2023-04-19T19:41:55.188Z,100.00
2023-04-19T19:46:53.487Z,100.00
2023-04-19T19:51:59.438Z,100.00
2023-04-19T20:02:12.354Z,100.00
2023-04-19T20:12:23.125Z,100.00
2023-04-19T20:17:31.959Z,100.00
2023-04-19T20:22:35.964Z,100.00
2023-04-19T20:27:39.870Z,100.00
2023-04-19T20:32:45.301Z,100.00
2023-04-19T20:37:50.976Z,100.00
2023-04-19T20:42:54.992Z,100.00
2023-04-19T20:48:00.689Z,100.00
2023-04-19T20:53:04.629Z,100.00
2023-04-19T20:58:08.690Z,100.00
2023-04-19T21:03:14.241Z,100.00
2023-04-19T21:08:19.150Z,100.00
2023-04-19T21:13:23.026Z,100.00
2023-04-19T21:18:30.060Z,100.00
2023-04-19T21:23:35.752Z,100.00
2023-04-19T21:28:39.728Z,100.00
2023-04-19T21:33:45.121Z,100.00
2023-04-19T21:38:50.752Z,100.00
2023-04-19T21:43:54.775Z,100.00
2023-04-19T21:49:00.130Z,100.00
2023-04-19T21:54:04.090Z,100.00
2023-04-19T21:59:08.056Z,100.00
2023-04-19T22:04:14.421Z,100.00
2023-04-19T22:09:18.728Z,100.00
2023-04-19T22:14:24.130Z,100.00
2023-04-19T22:19:29.563Z,100.00
2023-04-19T22:24:34.727Z,100.00
2023-04-19T22:29:41.372Z,100.00
2023-04-19T22:34:47.027Z,100.00
2023-04-19T22:39:50.999Z,100.00
2023-04-19T22:44:54.925Z,100.00
2023-04-19T22:50:00.498Z,100.00
2023-04-19T22:55:04.640Z,100.00
2023-04-19T23:00:11.025Z,100.00
2023-04-19T23:05:18.064Z,100.00
2023-04-19T23:10:22.817Z,100.00
2023-04-19T23:15:29.501Z,100.00
2023-04-19T23:20:34.953Z,100.00
2023-04-19T23:25:38.962Z,100.00
2023-04-19T23:30:42.909Z,100.00
2023-04-19T23:35:48.283Z,100.00
2023-04-19T23:40:52.196Z,100.00
2023-04-19T23:45:56.252Z,100.00
2023-04-19T23:51:01.839Z,100.00
2023-04-19T23:56:06.660Z,100.00
